Time;durP1;ratioP1;P1;durP2;ratioP2;P2;SDS_P1;SDS_P2;PMS_P1;PMS_P2;Temp;Humidity;BMP_temperature;BMP_pressure;BME280_temperature;BME280_humidity;BME280_pressure;Samples;Min_cycle;Max_cycle;Signal;HPM_P1;HPM_P2
2022/02/08 00:01:38;;;;;;;17.63;2.85;;;;;;;2.92;89.83;100088.00;5079973;28;20205;-68
2022/02/08 00:04:03;;;;;;;12.85;3.08;;;;;;;2.87;89.66;100094.75;5082390;28;20088;-68
2022/02/08 00:08:57;;;;;;;15.98;2.78;;;;;;;2.90;89.70;100081.88;5085178;28;20028;-68
2022/02/08 00:11:23;;;;;;;9.73;2.50;;;;;;;2.77;90.96;100082.28;5086240;28;20069;-68
2022/02/08 00:13:48;;;;;;;10.38;3.55;;;;;;;2.85;90.05;100090.34;5086218;28;20024;-68
2022/02/08 00:16:14;;;;;;;8.40;2.30;;;;;;;2.86;89.69;100087.81;5086170;28;20017;-68
2022/02/08 00:18:39;;;;;;;7.53;2.33;;;;;;;2.76;89.82;100090.94;5086036;28;20027;-68
2022/02/08 00:21:05;;;;;;;11.73;3.08;;;;;;;2.68;89.82;100097.56;5086205;28;20024;-68
2022/02/08 00:23:30;;;;;;;8.35;2.00;;;;;;;2.71;90.42;100091.56;5086010;28;20021;-68
2022/02/08 00:25:56;;;;;;;10.55;2.47;;;;;;;2.72;90.20;100102.03;5085788;28;20020;-68
2022/02/08 00:28:21;;;;;;;8.52;2.53;;;;;;;2.70;90.47;100105.41;5085912;28;20212;-68
2022/02/08 00:30:47;;;;;;;13.55;1.70;;;;;;;2.69;90.05;100099.31;5085678;28;20110;-68
2022/02/08 00:33:12;;;;;;;7.93;2.60;;;;;;;2.67;90.19;100101.00;5085842;28;20020;-68
2022/02/08 00:35:38;;;;;;;6.80;2.15;;;;;;;2.56;90.66;100097.13;5085791;28;20054;-68
2022/02/08 00:38:04;;;;;;;9.15;2.97;;;;;;;2.51;91.20;100096.09;5084657;28;20048;-68
2022/02/08 00:40:29;;;;;;;9.45;2.53;;;;;;;2.47;91.32;100096.81;5085675;28;20024;-68
2022/02/08 00:42:56;;;;;;;7.68;2.65;;;;;;;2.46;90.68;100089.84;5085650;28;20020;-68
2022/02/08 00:47:54;;;;;;;8.55;1.85;;;;;;;2.40;91.30;100089.63;5085495;28;20088;-68
2022/02/08 00:50:20;;;;;;;8.52;2.20;;;;;;;2.35;91.52;100086.00;5083146;28;20091;-68
2022/02/08 00:52:45;;;;;;;11.23;3.08;;;;;;;2.29;91.84;100080.56;5085611;28;20024;-68
2022/02/08 00:55:12;;;;;;;8.40;2.85;;;;;;;2.25;91.87;100081.31;5085390;28;20052;-68
2022/02/08 00:57:38;;;;;;;6.63;1.95;;;;;;;2.22;91.82;100078.59;5085391;28;20021;-68
2022/02/08 01:00:07;;;;;;;15.60;3.50;;;;;;;2.32;91.60;100085.88;5085388;28;20046;-68
2022/02/08 01:02:33;;;;;;;8.30;2.63;;;;;;;2.51;91.02;100080.50;5085276;28;20062;-68
2022/02/08 01:05:01;;;;;;;4.88;1.98;;;;;;;2.54;91.08;100083.22;5085434;28;20021;-68
2022/02/08 01:07:27;;;;;;;3.55;1.75;;;;;;;2.57;90.95;100083.31;5085425;28;20228;-68
2022/02/08 01:09:57;;;;;;;5.22;2.38;;;;;;;2.65;91.38;100091.41;5085405;28;20024;-68
2022/02/08 01:12:24;;;;;;;10.18;1.83;;;;;;;2.67;91.30;100090.59;5085380;28;20347;-68
2022/02/08 01:14:52;;;;;;;12.93;2.25;;;;;;;2.70;90.26;100090.72;5084827;28;20016;-68
2022/02/08 01:17:21;;;;;;;6.20;2.35;;;;;;;2.76;90.61;100090.94;5085005;28;20020;-68
2022/02/08 01:19:59;;;;;;;9.23;2.13;;;;;;;2.88;90.13;100095.66;5085094;28;20028;-68
2022/02/08 01:22:24;;;;;;;18.02;2.63;;;;;;;2.87;90.48;100094.75;5083883;28;20020;-68
2022/02/08 01:24:51;;;;;;;5.15;2.45;;;;;;;2.93;90.27;100088.88;5085016;28;20154;-68
2022/02/08 01:27:20;;;;;;;13.25;2.95;;;;;;;3.00;89.24;100091.75;5085048;28;20304;-68
2022/02/08 01:35:06;;;;;;;14.75;2.05;;;;;;;3.03;88.67;100097.03;5083951;28;20036;-68
2022/02/08 01:37:51;;;;;;;10.30;2.15;;;;;;;3.05;88.65;100094.50;5084459;28;20240;-68
2022/02/08 01:40:36;;;;;;;5.28;1.60;;;;;;;3.19;87.79;100101.94;5082218;28;20023;-68
2022/02/08 01:50:37;;;;;;;15.25;2.03;;;;;;;3.18;87.97;100087.16;5084792;28;20051;-68
2022/02/08 01:53:05;;;;;;;8.55;2.33;;;;;;;3.12;88.14;100076.53;5084212;28;20228;-68
2022/02/08 01:55:32;;;;;;;14.80;2.63;;;;;;;3.23;87.71;100095.97;5084149;28;20036;-68
2022/02/08 01:57:58;;;;;;;7.25;1.60;;;;;;;3.28;87.98;100089.22;5084186;28;20308;-68
2022/02/08 02:00:23;;;;;;;13.13;2.60;;;;;;;3.29;87.66;100085.78;5084152;28;20042;-68
2022/02/08 02:02:49;;;;;;;20.45;2.20;;;;;;;3.31;87.55;100091.03;5082913;28;20050;-68
2022/02/08 02:05:15;;;;;;;9.25;2.30;;;;;;;3.33;87.09;100078.97;5084181;28;20016;-68
2022/02/08 02:07:47;;;;;;;14.32;3.72;;;;;;;3.40;87.16;100088.72;5083984;28;20016;-68
2022/02/08 02:10:14;;;;;;;10.00;2.08;;;;;;;3.39;87.21;100082.63;5083845;28;20043;-68
2022/02/08 02:13:02;;;;;;;14.50;1.70;;;;;;;3.41;87.41;100080.97;5084381;28;20020;-68
2022/02/08 02:15:29;;;;;;;8.23;2.20;;;;;;;3.51;87.27;100077.81;5082893;28;20177;-68
2022/02/08 02:17:55;;;;;;;20.17;2.47;;;;;;;3.54;87.52;100083.13;5083793;28;20024;-68
2022/02/08 02:20:22;;;;;;;16.35;3.05;;;;;;;3.56;87.26;100081.47;5084008;28;20195;-68
2022/02/08 02:22:48;;;;;;;12.93;2.65;;;;;;;3.57;87.35;100078.00;5083941;28;20021;-68
2022/02/08 02:25:24;;;;;;;9.90;2.45;;;;;;;3.59;87.56;100081.56;5083840;28;20240;-68
2022/02/08 02:27:52;;;;;;;15.88;1.90;;;;;;;3.62;87.62;100075.56;5083260;28;20036;-68
2022/02/08 02:30:18;;;;;;;9.50;2.67;;;;;;;3.59;87.27;100072.84;5081537;28;20100;-68
2022/02/08 02:32:43;;;;;;;12.30;2.33;;;;;;;3.60;87.30;100072.00;5083510;28;20193;-68
2022/02/08 02:35:09;;;;;;;15.10;2.38;;;;;;;3.62;87.58;100071.25;5083924;28;20024;-68
2022/02/08 02:37:35;;;;;;;8.13;1.98;;;;;;;3.63;87.63;100067.78;5083429;28;20020;-68
2022/02/08 02:40:00;;;;;;;10.60;1.95;;;;;;;3.63;87.71;100070.38;5083394;28;20024;-68
2022/02/08 02:42:30;;;;;;;9.80;2.17;;;;;;;3.62;88.00;100071.25;5083185;28;20016;-68
2022/02/08 02:44:55;;;;;;;8.48;1.55;;;;;;;3.61;87.72;100064.25;5083237;28;20055;-68
2022/02/08 02:47:23;;;;;;;8.65;2.20;;;;;;;3.65;87.60;100071.34;5083213;28;20020;-68
2022/02/08 02:49:48;;;;;;;5.72;1.98;;;;;;;3.71;87.80;100062.81;5083745;28;20047;-68
2022/02/08 02:52:14;;;;;;;7.93;2.55;;;;;;;3.68;87.62;100071.44;5082160;28;20047;-68
2022/02/08 02:54:39;;;;;;;7.68;2.60;;;;;;;3.73;87.20;100080.25;5083117;28;20016;-68
2022/02/08 02:57:05;;;;;;;8.23;2.45;;;;;;;3.68;87.69;100080.94;5083150;28;20021;-68
2022/02/08 02:59:33;;;;;;;19.20;3.42;;;;;;;3.71;88.15;100071.53;5083096;28;20028;-68
2022/02/08 03:20:36;;;;;;;14.57;2.78;;;;;;;3.73;87.57;100063.72;5079406;28;20316;-68
2022/02/08 03:23:02;;;;;;;8.70;2.00;;;;;;;3.63;87.54;100057.38;5083006;28;20020;-68
2022/02/08 03:25:28;;;;;;;10.90;2.20;;;;;;;3.67;87.73;100059.22;5082549;28;20016;-68
2022/02/08 03:27:53;;;;;;;10.30;2.55;;;;;;;3.76;88.11;100067.31;5082775;28;20165;-68
2022/02/08 03:30:18;;;;;;;8.27;2.90;;;;;;;3.68;88.15;100068.81;5082574;28;20044;-68
2022/02/08 03:32:44;;;;;;;14.02;2.50;;;;;;;3.65;88.12;100063.53;5082823;28;20025;-68
2022/02/08 03:35:11;;;;;;;7.70;2.67;;;;;;;3.73;87.46;100063.72;5082843;28;20020;-68
2022/02/08 03:37:43;;;;;;;7.05;2.33;;;;;;;3.80;87.56;100066.56;5082795;28;20039;-68
2022/02/08 03:40:19;;;;;;;;;;;;;;;3.80;87.11;100074.38;5083115;28;20024;-68
2022/02/08 03:42:58;;;;;;;14.27;1.75;;;;;;;3.81;87.69;100073.56;5083568;28;20211;-69
2022/02/08 03:45:24;;;;;;;14.18;2.45;;;;;;;3.87;87.27;100073.75;5087130;28;20019;-69
2022/02/08 03:47:49;;;;;;;7.32;2.08;;;;;;;3.80;87.80;100079.59;5086731;28;20021;-68
2022/02/08 03:50:15;;;;;;;10.40;2.92;;;;;;;3.83;87.77;100087.50;5086835;28;20020;-68
2022/02/08 03:52:40;;;;;;;6.53;1.67;;;;;;;3.82;87.76;100090.94;5086629;28;20205;-68
2022/02/08 03:55:06;;;;;;;8.02;2.65;;;;;;;3.84;88.43;100088.38;5086491;28;20081;-68
2022/02/08 03:57:32;;;;;;;13.00;2.60;;;;;;;3.91;87.99;100075.59;5086637;28;20020;-68
2022/02/08 03:59:57;;;;;;;10.63;1.65;;;;;;;3.94;87.64;100075.69;5086478;28;20247;-68
2022/02/08 04:02:35;;;;;;;15.00;1.98;;;;;;;3.92;87.85;100085.16;5086429;28;20016;-68
2022/02/08 04:05:10;;;;;;;18.00;2.50;;;;;;;3.89;88.00;100092.03;5086904;28;20048;-68
2022/02/08 04:07:44;;;;;;;12.90;2.30;;;;;;;3.92;88.43;100087.78;5086837;28;20024;-68
2022/02/08 04:10:13;;;;;;;18.92;2.92;;;;;;;3.98;87.87;100082.75;5085583;28;20016;-68
2022/02/08 04:12:48;;;;;;;9.88;2.22;;;;;;;3.95;88.01;100080.06;5086348;28;20020;-68
2022/02/08 04:41:45;;;;;;;14.18;2.63;;;;;;;4.13;87.88;100061.47;5081229;28;20288;-68
2022/02/08 04:46:57;;;;;;;15.02;2.58;;;;;;;4.19;88.05;100070.34;5084270;28;20095;-68
2022/02/08 04:49:23;;;;;;;8.43;1.73;;;;;;;4.16;87.97;100085.91;5084924;28;20021;-68
2022/02/08 04:51:53;;;;;;;15.65;2.17;;;;;;;4.20;87.91;100079.03;5084833;28;20320;-68
2022/02/08 05:45:02;;;;;;;13.50;2.67;;;;;;;4.45;87.68;100066.75;5024108;28;20081;-67
2022/02/08 05:47:28;;;;;;;8.02;1.63;;;;;;;4.49;87.67;100071.19;5055569;28;20052;-67
2022/02/08 05:50:10;;;;;;;7.03;1.58;;;;;;;4.56;87.68;100063.53;5085480;28;20324;-67
2022/02/08 05:53:30;;;;;;;15.65;1.98;;;;;;;4.56;87.56;100068.75;5085420;28;20078;-67
2022/02/08 05:55:21;;;;;;;8.18;2.00;;;;;;;4.54;88.57;100068.72;5074512;28;20228;-67
2022/02/08 05:57:46;;;;;;;10.05;2.33;;;;;;;4.60;87.77;100060.16;5085353;28;20020;-67
2022/02/08 06:00:13;;;;;;;12.35;2.08;;;;;;;4.59;87.74;100064.53;5085297;28;20020;-67
2022/02/08 06:02:38;;;;;;;14.48;1.90;;;;;;;4.64;87.74;100056.78;5085215;28;20074;-67
2022/02/08 06:05:08;;;;;;;7.50;1.58;;;;;;;4.63;87.96;100055.03;5084750;28;20036;-67
2022/02/08 06:07:33;;;;;;;21.70;2.30;;;;;;;4.63;88.07;100061.16;5084809;28;20224;-67
2022/02/08 06:09:58;;;;;;;15.13;2.45;;;;;;;4.57;89.03;100055.75;5085349;28;20032;-67
2022/02/08 06:12:25;;;;;;;8.82;1.85;;;;;;;4.65;89.05;100055.97;5085036;28;20044;-67
2022/02/08 06:14:58;;;;;;;7.18;1.60;;;;;;;4.62;88.53;100063.72;5085149;28;20251;-67
2022/02/08 06:17:24;;;;;;;10.75;2.58;;;;;;;4.65;88.84;100069.00;5085236;28;20308;-67
2022/02/08 06:19:52;;;;;;;10.80;2.15;;;;;;;4.68;88.57;100076.91;5084899;28;20066;-67
2022/02/08 06:22:18;;;;;;;7.65;1.83;;;;;;;4.66;88.89;100070.78;5085060;28;20024;-67
2022/02/08 06:24:43;;;;;;;12.00;2.05;;;;;;;4.68;88.70;100074.31;5084751;28;20253;-67
2022/02/08 06:27:09;;;;;;;9.07;1.98;;;;;;;4.70;88.73;100077.81;5084801;28;20016;-67
2022/02/08 06:29:35;;;;;;;11.82;1.98;;;;;;;4.70;88.35;100072.59;5084957;28;20016;-67
2022/02/08 06:32:00;;;;;;;6.22;1.77;;;;;;;4.76;88.27;100083.22;5084704;28;20079;-67
2022/02/08 06:34:30;;;;;;;10.05;2.05;;;;;;;4.81;87.83;100079.88;5084564;28;20024;-67
2022/02/08 06:37:01;;;;;;;7.20;1.45;;;;;;;4.72;88.36;100076.16;5084575;28;20020;-67
2022/02/08 06:39:33;;;;;;;8.57;2.42;;;;;;;4.76;88.03;100078.00;5084797;28;20308;-67
2022/02/08 06:41:58;;;;;;;7.47;2.28;;;;;;;4.75;88.33;100091.88;5084505;28;20087;-67
2022/02/08 06:44:23;;;;;;;17.45;2.95;;;;;;;4.76;88.04;100083.22;5084467;28;20024;-67
2022/02/08 06:46:49;;;;;;;5.57;1.83;;;;;;;4.81;88.44;100082.47;5084448;28;20055;-67
2022/02/08 06:49:14;;;;;;;11.63;2.47;;;;;;;4.78;88.11;100081.53;5084601;28;20316;-67
2022/02/08 06:51:40;;;;;;;10.93;1.80;;;;;;;4.73;88.11;100088.34;5084301;28;20028;-67
2022/02/08 06:54:05;;;;;;;17.80;1.67;;;;;;;4.78;88.30;100081.53;5084204;28;20024;-67
2022/02/08 06:56:31;;;;;;;8.02;1.70;;;;;;;4.80;88.36;100080.72;5084275;28;20048;-67
2022/02/08 06:59:04;;;;;;;13.77;1.70;;;;;;;4.85;88.24;100078.22;5084464;28;20212;-67
2022/02/08 07:01:32;;;;;;;;;;;;;;;4.80;88.11;100075.50;5084918;28;20020;-67
2022/02/08 07:03:58;;;;;;;9.35;2.15;;;;;;;4.85;87.91;100094.78;5084416;28;19911;-67
2022/02/08 07:06:24;;;;;;;12.00;2.63;;;;;;;4.95;87.41;100102.00;5084130;28;20048;-67
2022/02/08 07:08:49;;;;;;;6.93;1.45;;;;;;;4.95;87.45;100103.72;5084067;28;20028;-67
2022/02/08 07:11:16;;;;;;;17.75;2.65;;;;;;;4.83;87.79;100100.78;5084076;28;20077;-67
2022/02/08 07:13:44;;;;;;;21.08;2.45;;;;;;;4.79;88.19;100098.94;5084273;28;20208;-67
2022/02/08 07:16:13;;;;;;;14.32;2.53;;;;;;;4.77;88.60;100105.84;5083920;28;20099;-67
2022/02/08 07:18:39;;;;;;;7.18;1.83;;;;;;;4.73;88.70;100093.56;5083823;28;20029;-67
2022/02/08 07:21:06;;;;;;;17.55;2.08;;;;;;;4.76;89.23;100083.22;5084209;28;20169;-67
2022/02/08 07:23:31;;;;;;;14.48;2.45;;;;;;;4.74;89.18;100085.78;5083959;28;20373;-67
2022/02/08 07:25:57;;;;;;;6.90;1.60;;;;;;;4.75;89.08;100084.06;5083863;28;20013;-67
2022/02/08 07:28:22;;;;;;;4.20;1.20;;;;;;;4.80;89.42;100083.31;5083888;28;20039;-67
2022/02/08 07:30:47;;;;;;;10.50;1.40;;;;;;;4.81;89.63;100082.47;5083728;28;20039;-67
2022/02/08 07:33:13;;;;;;;15.10;2.25;;;;;;;4.81;89.00;100076.41;5083863;28;20028;-67
2022/02/08 07:38:11;;;;;;;25.42;2.30;;;;;;;4.82;89.20;100079.06;5084074;28;20025;-67
2022/02/08 07:43:05;;;;;;;11.30;2.33;;;;;;;4.95;88.71;100075.00;5084087;28;20021;-67
2022/02/08 07:45:31;;;;;;;10.05;2.47;;;;;;;4.94;88.01;100078.47;5083813;28;20095;-67
2022/02/08 07:47:56;;;;;;;12.05;2.30;;;;;;;4.95;88.67;100081.13;5083698;28;20024;-67
2022/02/08 07:50:26;;;;;;;11.88;2.35;;;;;;;5.02;88.72;100082.16;5083689;28;20028;-67
2022/02/08 07:52:53;;;;;;;10.75;1.88;;;;;;;5.07;88.03;100075.34;5083698;28;20028;-67
2022/02/08 07:55:20;;;;;;;14.48;2.17;;;;;;;5.14;88.60;100087.69;5083482;28;20079;-67
2022/02/08 07:57:45;;;;;;;7.88;2.55;;;;;;;5.10;87.95;100076.31;5083611;28;20052;-67
2022/02/08 08:00:11;;;;;;;12.10;2.40;;;;;;;5.21;86.84;100084.38;5083601;28;20393;-67
2022/02/08 08:02:37;;;;;;;13.20;2.15;;;;;;;5.20;87.91;100082.63;5083630;28;20259;-67
2022/02/08 08:05:04;;;;;;;20.58;3.00;;;;;;;5.25;87.65;100075.81;5083556;28;20024;-67
2022/02/08 08:07:30;;;;;;;6.28;2.05;;;;;;;5.19;87.52;100065.22;5083776;28;20032;-67
2022/02/08 08:09:55;;;;;;;11.55;2.47;;;;;;;5.20;88.24;100067.84;5083506;28;20040;-67
2022/02/08 08:12:22;;;;;;;10.85;2.10;;;;;;;5.24;88.45;100071.41;5083484;28;20024;-67
2022/02/08 08:14:48;;;;;;;18.65;2.90;;;;;;;5.29;88.36;100064.59;5083606;28;20024;-67
2022/02/08 08:19:39;;;;;;;5.85;1.15;;;;;;;5.33;88.40;100079.47;5083395;28;20021;-67
2022/02/08 08:22:09;;;;;;;21.25;3.00;;;;;;;5.36;87.39;100079.53;5083402;28;20025;-67
2022/02/08 08:24:35;;;;;;;13.18;3.13;;;;;;;5.35;87.49;100083.00;5083373;28;20025;-67
2022/02/08 08:27:01;;;;;;;23.42;2.35;;;;;;;5.51;86.69;100079.91;5083630;28;20020;-67
2022/02/08 08:29:26;;;;;;;3.78;1.70;;;;;;;5.51;86.78;100082.53;5084934;28;20051;-67
2022/02/08 08:31:52;;;;;;;16.77;2.13;;;;;;;5.61;86.85;100087.13;5086833;28;20051;-67
2022/02/08 08:34:18;;;;;;;15.40;1.95;;;;;;;5.51;87.59;100090.34;5086886;28;20029;-67
2022/02/08 08:36:46;;;;;;;27.60;2.45;;;;;;;5.62;87.58;100091.47;5086874;28;20034;-67
2022/02/08 08:39:12;;;;;;;9.73;1.67;;;;;;;5.62;87.65;100102.81;5087100;28;20079;-67
2022/02/08 08:41:53;;;;;;;8.80;1.67;;;;;;;5.63;87.82;100101.09;5086807;28;20197;-67
2022/02/08 08:44:56;;;;;;;7.15;1.55;;;;;;;5.67;88.08;100108.16;5086771;28;20013;-67
2022/02/08 08:52:36;;;;;;;7.97;1.23;;;;;;;5.76;89.07;100113.59;5086924;28;20028;-67
2022/02/08 08:55:04;;;;;;;21.13;3.47;;;;;;;5.81;90.33;100111.94;5086531;28;20088;-67
2022/02/08 08:57:29;;;;;;;9.35;2.50;;;;;;;5.68;92.05;100120.34;5086770;28;20326;-67
2022/02/08 08:59:55;;;;;;;15.05;2.50;;;;;;;5.71;93.52;100120.44;5086489;28;20024;-67
2022/02/08 09:02:21;;;;;;;9.80;2.28;;;;;;;5.67;94.03;100126.44;5086446;28;20020;-67
2022/02/08 09:04:48;;;;;;;13.43;2.00;;;;;;;5.63;94.65;100133.31;5086457;28;20043;-67
2022/02/08 09:07:14;;;;;;;6.38;1.92;;;;;;;5.53;95.08;100135.66;5086582;28;20021;-67
2022/02/08 09:09:43;;;;;;;4.50;1.67;;;;;;;5.44;95.75;100138.94;5086568;28;20208;-67
2022/02/08 09:12:25;;;;;;;14.10;1.80;;;;;;;5.38;96.18;100137.91;5086494;28;20216;-67
2022/02/08 09:17:52;;;;;;;6.88;2.00;;;;;;;5.36;96.69;100136.97;5086214;28;20213;-67
2022/02/08 09:27:49;;;;;;;14.75;2.40;;;;;;;5.21;97.55;100144.41;5085981;28;20020;-67
2022/02/08 09:30:17;;;;;;;7.95;2.20;;;;;;;5.28;97.46;100143.75;5086062;28;20340;-67
2022/02/08 09:32:51;;;;;;;12.77;2.20;;;;;;;5.30;97.62;100142.03;5086138;28;20127;-67
2022/02/08 09:35:17;;;;;;;13.25;2.60;;;;;;;5.28;97.50;100144.59;5067894;28;20023;-67
2022/02/08 09:37:44;;;;;;;17.48;2.55;;;;;;;5.30;97.88;100136.81;5085705;28;20016;-67
2022/02/08 09:40:11;;;;;;;12.30;2.45;;;;;;;5.35;97.87;100145.66;5085734;28;20270;-67
2022/02/08 09:42:39;;;;;;;19.45;2.70;;;;;;;5.38;98.37;100146.59;5085664;28;20320;-67
2022/02/08 09:45:08;;;;;;;7.95;2.40;;;;;;;5.37;98.93;100146.56;5085879;28;20044;-67
2022/02/08 09:47:59;;;;;;;10.73;2.20;;;;;;;5.37;99.08;100149.19;5085556;28;20066;-67
2022/02/08 09:50:29;;;;;;;11.05;2.08;;;;;;;5.42;99.26;100137.13;5085137;28;20044;-67
2022/02/08 09:52:58;;;;;;;6.65;1.85;;;;;;;5.36;99.85;100136.97;5085476;28;20066;-67
2022/02/08 09:55:27;;;;;;;14.63;1.92;;;;;;;5.37;99.48;100133.50;5085258;28;20024;-67
2022/02/08 09:57:53;;;;;;;6.75;2.38;;;;;;;5.42;99.54;100139.75;5085347;28;20067;-67
2022/02/08 10:00:19;;;;;;;10.80;2.53;;;;;;;5.47;98.74;100141.63;5085253;28;20324;-67
2022/02/08 10:02:45;;;;;;;11.63;2.38;;;;;;;5.45;99.41;100142.44;5085284;28;20032;-67
2022/02/08 10:05:13;;;;;;;13.57;3.33;;;;;;;5.46;99.34;100138.97;5085256;28;20048;-67
2022/02/08 10:07:39;;;;;;;8.50;2.50;;;;;;;5.51;98.89;100148.66;5085390;28;20062;-67
2022/02/08 10:10:10;;;;;;;13.25;2.60;;;;;;;5.51;98.96;100148.66;5085178;28;20028;-67
2022/02/08 10:12:48;;;;;;;30.88;3.15;;;;;;;5.62;98.52;100134.16;5085127;28;20028;-67
2022/02/08 10:23:25;;;;;;;12.93;1.90;;;;;;;5.90;96.90;100138.34;5084926;28;20231;-67
2022/02/08 10:26:00;;;;;;;4.88;1.85;;;;;;;5.96;96.44;100143.69;5084751;28;20021;-67
2022/02/08 10:28:51;;;;;;;17.90;2.45;;;;;;;6.07;95.85;100142.19;5084748;28;20070;-67
2022/02/08 10:39:17;;;;;;;13.15;2.63;;;;;;;6.27;95.11;100146.16;5084614;28;20023;-67
2022/02/08 10:41:48;;;;;;;17.20;2.25;;;;;;;6.25;95.74;100147.84;5084712;28;20048;-67
2022/02/08 10:44:13;;;;;;;13.40;2.70;;;;;;;6.24;94.47;100144.34;5084469;28;20021;-67
2022/02/08 10:46:39;;;;;;;22.45;3.97;;;;;;;6.30;94.77;100138.38;5084459;28;20031;-67
2022/02/08 10:49:12;;;;;;;9.48;2.50;;;;;;;6.40;94.78;100142.94;5084499;28;20134;-67
2022/02/08 10:51:54;;;;;;;15.75;1.80;;;;;;;6.43;94.68;100129.94;5083919;28;20046;-67
2022/02/08 10:54:45;;;;;;;21.20;2.30;;;;;;;6.46;94.39;100137.84;5084253;28;20220;-67
2022/02/08 10:57:15;;;;;;;18.83;2.40;;;;;;;6.59;94.08;100132.00;5083937;28;20040;-67
2022/02/08 10:59:54;;;;;;;17.70;2.40;;;;;;;6.46;94.30;100124.78;5084533;28;20239;-67
2022/02/08 11:02:26;;;;;;;12.95;2.58;;;;;;;6.47;95.05;100121.28;5084525;28;20032;-67
2022/02/08 11:05:00;;;;;;;15.38;2.88;;;;;;;6.65;94.75;100126.91;5084198;28;20016;-67
2022/02/08 11:15:23;;;;;;;17.50;2.00;;;;;;;6.56;94.82;100103.19;5084333;28;20093;-67
2022/02/08 11:18:11;;;;;;;14.98;2.88;;;;;;;6.64;95.02;100114.66;5084097;28;20094;-67
2022/02/08 11:20:43;;;;;;;12.05;2.78;;;;;;;6.75;94.59;100115.75;5084262;28;20346;-67
2022/02/08 11:23:14;;;;;;;25.17;3.13;;;;;;;6.85;94.94;100107.22;5084286;28;20216;-67
2022/02/08 11:25:43;;;;;;;8.88;2.58;;;;;;;6.96;95.85;100116.16;5084151;28;20055;-67
2022/02/08 11:31:00;;;;;;;18.88;3.30;;;;;;;7.27;95.03;100108.00;5083734;28;20040;-67
2022/02/08 11:44:45;;;;;;;6.07;2.60;;;;;;;7.24;95.04;100113.16;5083790;28;20324;-67
2022/02/08 11:50:03;;;;;;;9.30;2.50;;;;;;;7.30;94.84;100118.53;5083713;28;20028;-67
2022/02/08 11:56:13;;;;;;;14.45;2.53;;;;;;;7.17;95.06;100115.66;5083600;28;20217;-67
2022/02/08 11:58:18;;;;;;;13.05;2.58;;;;;;;7.20;95.16;100110.47;5075316;28;20032;-67
2022/02/08 12:00:47;;;;;;;17.42;3.17;;;;;;;7.16;95.64;100109.56;5083888;28;20126;-67
2022/02/08 12:06:10;;;;;;;11.88;2.95;;;;;;;7.22;96.37;100107.03;5087531;28;20013;-67
2022/02/08 12:08:45;;;;;;;7.18;2.50;;;;;;;7.35;96.68;100106.41;5087501;28;20024;-67
2022/02/08 12:11:43;;;;;;;11.55;2.60;;;;;;;7.49;95.89;100104.88;5087520;28;20212;-67
2022/02/08 12:36:13;;;;;;;6.68;1.85;;;;;;;7.74;95.67;100086.06;5073829;28;20343;-67
2022/02/08 12:57:46;;;;;;;4.32;1.95;;;;;;;7.70;95.95;100073.78;5086580;28;20340;-67
2022/02/08 13:00:44;;;;;;;15.80;3.08;;;;;;;7.59;96.58;100070.09;5086590;28;20090;-67
2022/02/08 14:05:41;;;;;;;6.50;2.30;;;;;;;7.92;98.96;100018.16;5085313;28;20013;-67
2022/02/08 14:18:49;;;;;;;5.32;2.35;;;;;;;8.09;98.53;100015.75;5085012;28;20020;-67
2022/02/08 15:09:00;;;;;;;10.23;2.75;;;;;;;7.77;99.56;100031.06;5055700;28;20044;-67
2022/02/08 15:11:34;;;;;;;8.25;2.88;;;;;;;7.78;99.16;100039.81;5084124;28;20224;-67
2022/02/08 15:14:00;;;;;;;5.07;2.80;;;;;;;7.76;99.82;100031.94;5084391;28;20300;-67
2022/02/08 15:16:29;;;;;;;4.43;2.40;;;;;;;7.78;100.00;100024.94;5083959;28;20369;-67
2022/02/08 15:18:58;;;;;;;11.95;3.33;;;;;;;7.78;99.79;100024.94;5084005;28;20065;-67
2022/02/08 15:21:31;;;;;;;7.75;3.05;;;;;;;7.79;99.92;100020.59;5083974;28;20291;-67
2022/02/08 15:23:56;;;;;;;6.00;2.90;;;;;;;7.69;100.00;100018.72;5084159;28;20069;-67
2022/02/08 15:26:22;;;;;;;9.90;2.55;;;;;;;7.72;100.00;100029.25;5083952;28;20036;-67
2022/02/08 15:28:48;;;;;;;13.43;3.58;;;;;;;7.71;100.00;100017.88;5083970;28;20050;-67
2022/02/08 15:31:13;;;;;;;9.40;3.50;;;;;;;7.67;100.00;100026.56;5083717;28;20063;-67
2022/02/08 15:33:39;;;;;;;7.75;3.28;;;;;;;7.68;100.00;100022.19;5083899;28;20032;-67
2022/02/08 15:36:05;;;;;;;11.38;3.05;;;;;;;7.68;100.00;100023.06;5083526;28;20201;-67
2022/02/08 15:38:33;;;;;;;7.63;3.28;;;;;;;7.58;100.00;100025.53;5085849;28;20181;-67
2022/02/08 15:41:00;;;;;;;9.68;2.75;;;;;;;7.54;100.00;100029.84;5087927;28;20039;-67
2022/02/08 15:43:27;;;;;;;9.77;3.42;;;;;;;7.49;100.00;100031.50;5088611;28;20057;-67
2022/02/08 15:46:08;;;;;;;4.95;2.90;;;;;;;7.47;100.00;100033.22;5088359;28;20362;-67
2022/02/08 15:48:34;;;;;;;4.38;2.13;;;;;;;7.53;100.00;100028.06;5087998;28;20020;-68
2022/02/08 16:01:38;;;;;;;7.32;2.92;;;;;;;7.56;100.00;100037.75;5087150;28;20028;-68
2022/02/08 16:09:47;;;;;;;4.38;1.70;;;;;;;7.65;100.00;100023.03;5088264;28;20285;-68
2022/02/08 16:20:30;;;;;;;2.63;1.63;;;;;;;7.43;100.00;100036.66;5083958;28;20031;-68
2022/02/08 16:25:41;;;;;;;4.82;1.80;;;;;;;7.40;100.00;100036.59;5087983;28;20331;-68
2022/02/08 16:28:22;;;;;;;7.68;2.28;;;;;;;7.32;100.00;100043.47;5088352;28;20395;-68
2022/02/08 16:31:26;;;;;;;7.93;1.83;;;;;;;7.42;100.00;100034.91;5085808;28;20107;-68
2022/02/08 16:58:25;;;;;;;3.45;1.50;;;;;;;7.37;100.00;100044.41;5084829;28;20028;-68
2022/02/08 17:00:54;;;;;;;3.65;1.90;;;;;;;7.38;100.00;100040.97;5083372;28;20200;-68
2022/02/08 17:03:25;;;;;;;6.13;1.70;;;;;;;7.38;100.00;100032.22;5084709;28;20075;-68
2022/02/08 17:05:51;;;;;;;4.70;1.63;;;;;;;7.40;100.00;100034.00;5084761;28;20197;-68
2022/02/08 17:08:17;;;;;;;2.47;1.42;;;;;;;7.36;100.00;100040.06;5084355;28;20034;-68
2022/02/08 17:10:47;;;;;;;3.75;1.70;;;;;;;7.38;100.00;100042.69;5084495;28;20331;-68
2022/02/08 17:13:35;;;;;;;8.95;2.00;;;;;;;7.36;100.00;100050.53;5085017;28;20092;-68
2022/02/08 17:16:22;;;;;;;4.50;2.08;;;;;;;7.37;100.00;100041.81;5085015;28;20033;-68
2022/02/08 17:48:04;;;;;;;3.33;1.67;;;;;;;7.34;100.00;100049.59;5085655;28;20332;-68
2022/02/08 17:50:29;;;;;;;3.70;1.67;;;;;;;7.35;100.00;100043.53;5085583;28;20040;-68
2022/02/08 17:52:55;;;;;;;4.85;2.08;;;;;;;7.40;100.00;100047.09;5085555;28;20366;-68
2022/02/08 17:55:21;;;;;;;4.38;2.22;;;;;;;7.39;100.00;100045.34;5085442;28;20091;-68
2022/02/08 17:57:49;;;;;;;6.65;2.38;;;;;;;7.42;100.00;100042.75;5085432;28;20123;-68
2022/02/08 18:00:16;;;;;;;4.95;1.92;;;;;;;7.38;100.00;100043.59;5085395;28;20032;-68
2022/02/08 18:02:47;;;;;;;5.80;2.38;;;;;;;7.36;100.00;100047.91;5084168;28;20036;-68
2022/02/08 18:05:14;;;;;;;8.00;2.88;;;;;;;7.33;100.00;100055.72;5085585;28;20038;-68
2022/02/08 18:07:39;;;;;;;8.85;2.70;;;;;;;7.35;100.00;100058.34;5085268;28;20299;-68
2022/02/08 18:10:07;;;;;;;7.32;2.67;;;;;;;7.35;100.00;100054.00;5085444;28;20058;-68
2022/02/08 18:12:34;;;;;;;5.93;2.85;;;;;;;7.39;100.00;100058.44;5085097;28;20083;-68
2022/02/08 18:15:04;;;;;;;4.07;2.50;;;;;;;7.25;100.00;100054.72;5085245;28;20031;-68
2022/02/08 18:17:36;;;;;;;2.95;2.22;;;;;;;7.28;100.00;100051.25;5085339;28;20024;-68
2022/02/08 18:20:12;;;;;;;3.20;1.98;;;;;;;7.24;100.00;100060.78;5085033;28;20059;-68
2022/02/08 18:23:39;;;;;;;5.60;2.22;;;;;;;7.23;100.00;100059.03;5085219;28;20031;-68
2022/02/08 19:16:30;;;;;;;6.30;1.70;;;;;;;7.14;100.00;100069.34;5084053;28;20057;-68
2022/02/08 19:23:49;;;;;;;2.90;1.77;;;;;;;7.17;100.00;100066.78;5083917;28;20020;-68
2022/02/08 19:26:17;;;;;;;3.92;1.98;;;;;;;7.20;100.00;100069.47;5083965;28;20182;-68
2022/02/08 19:28:43;;;;;;;2.53;1.58;;;;;;;7.14;100.00;100063.22;5084182;28;20024;-68
2022/02/08 19:31:09;;;;;;;3.95;1.63;;;;;;;7.19;100.00;100067.72;5083798;28;20333;-68
2022/02/08 19:33:34;;;;;;;4.18;2.15;;;;;;;7.17;100.00;100058.03;5083950;28;20020;-68
2022/02/08 19:36:00;;;;;;;2.55;1.45;;;;;;;7.17;100.00;100060.66;5083837;28;20020;-68
2022/02/08 19:38:27;;;;;;;6.13;1.95;;;;;;;7.15;100.00;100065.88;5083876;28;20020;-68
2022/02/08 19:40:54;;;;;;;3.30;1.77;;;;;;;7.11;100.00;100064.06;5084090;28;20020;-68
2022/02/08 19:43:20;;;;;;;5.05;2.17;;;;;;;7.14;100.00;100063.22;5084045;28;20017;-68